Time;durP1;ratioP1;P1;durP2;ratioP2;P2;SDS_P1;SDS_P2;PMS_P1;PMS_P2;Temp;Humidity;BMP_temperature;BMP_pressure;BME280_temperature;BME280_humidity;BME280_pressure;Samples;Min_cycle;Max_cycle;Signal;HPM_P1;HPM_P2
2023/01/02 00:01:12;;;;;;;;;;;;;;;11.08;100.00;100904.75;5075626;28;20258;-71
2023/01/02 00:03:37;;;;;;;;;;;;;;;11.18;100.00;100893.19;5087319;28;19927;-66
2023/01/02 00:06:03;;;;;;;;;;;;;;;11.20;100.00;100895.69;5071985;28;19927;-69
2023/01/02 00:08:28;;;;;;;;;;;;;;;11.21;100.00;100889.16;5081827;28;19920;-72
2023/01/02 00:10:53;;;;;;;;;;;;;;;11.24;100.00;100895.00;5080811;28;19924;-69
2023/01/02 00:13:19;;;;;;;;;;;;;;;11.39;100.00;100905.56;5076477;28;19971;-73
2023/01/02 00:15:44;;;;;;;;;;;;;;;11.39;100.00;100900.91;5085184;28;20349;-72
2023/01/02 00:18:09;;;;;;;;;;;;;;;11.38;100.00;100902.00;5090329;28;19924;-72
2023/01/02 00:20:34;;;;;;;;;;;;;;;11.38;100.00;100904.75;5076075;28;19959;-65
2023/01/02 00:23:00;;;;;;;;;;;;;;;11.46;100.00;100891.75;5069943;28;19920;-70
2023/01/02 00:25:25;;;;;;;;;;;;;;;11.43;100.00;100891.13;5090693;28;20318;-73
2023/01/02 00:27:50;;;;;;;;;;;;;;;11.44;100.00;100900.22;5088721;28;19912;-73
2023/01/02 00:30:15;;;;;;;;;;;;;;;11.52;100.00;100885.28;5090468;28;19916;-73
2023/01/02 00:32:40;;;;;;;;;;;;;;;11.58;100.00;100892.59;5086538;28;19961;-72
2023/01/02 00:35:06;;;;;;;;;;;;;;;11.55;100.00;100877.38;5086238;28;19916;-69
2023/01/02 00:37:31;;;;;;;;;;;;;;;11.51;100.00;100870.72;5088875;28;19920;-69
2023/01/02 00:39:56;;;;;;;;;;;;;;;11.55;100.00;100871.88;5089101;28;20437;-70
2023/01/02 00:42:21;;;;;;;;;;;;;;;11.55;100.00;100866.38;5088265;28;19920;-72
2023/01/02 00:44:46;;;;;;;;;;;;;;;11.55;100.00;100873.81;5084498;28;20043;-72
2023/01/02 00:47:12;;;;;;;;;;;;;;;11.62;100.00;100871.78;5069951;28;19952;-70
2023/01/02 00:49:37;;;;;;;;;;;;;;;11.59;100.00;100875.00;5069533;28;19955;-67
2023/01/02 00:52:02;;;;;;;;;;;;;;;11.62;100.00;100878.13;5069792;28;19920;-72
2023/01/02 00:54:27;;;;;;;;;;;;;;;11.67;100.00;100871.91;5080272;28;19919;-70
2023/01/02 00:56:52;;;;;;;;;;;;;;;11.64;100.00;100864.13;5089361;28;19928;-70
2023/01/02 00:59:17;;;;;;;;;;;;;;;11.77;100.00;100863.09;5063619;28;19972;-69
2023/01/02 01:01:43;;;;;;;;;;;;;;;11.72;100.00;100865.72;5078449;28;19927;-72
2023/01/02 01:04:08;;;;;;;;;;;;;;;11.64;100.00;100855.88;5077658;28;20357;-72
2023/01/02 01:06:33;;;;;;;;;;;;;;;11.75;100.00;100856.97;5077437;28;19928;-71
2023/01/02 01:08:59;;;;;;;;;;;;;;;11.67;100.00;100856.25;5076466;28;20011;-71
2023/01/02 01:11:24;;;;;;;;;;;;;;;11.75;100.00;100844.03;5069797;28;20326;-70
2023/01/02 01:13:50;;;;;;;;;;;;;;;11.77;100.00;100850.16;5083160;28;19920;-71
2023/01/02 01:16:16;;;;;;;;;;;;;;;11.81;100.00;100850.50;5075536;28;19927;-73
2023/01/02 01:18:41;;;;;;;;;;;;;;;11.77;100.00;100847.41;5073314;28;19928;-72
2023/01/02 01:21:07;;;;;;;;;;;;;;;11.79;100.00;100850.75;5069213;28;20007;-72
2023/01/02 01:23:33;;;;;;;;;;;;;;;11.80;100.00;100846.91;5068855;28;19921;-69
2023/01/02 01:25:58;;;;;;;;;;;;;;;11.82;100.00;100844.81;5069078;28;19919;-70
2023/01/02 01:28:23;;;;;;;;;;;;;;;11.82;100.00;100839.31;5075729;28;19924;-72
2023/01/02 01:30:48;;;;;;;;;;;;;;;11.85;100.00;100847.06;5088283;28;20482;-72
2023/01/02 01:33:13;;;;;;;;;;;;;;;11.78;100.00;100849.06;5079630;28;19916;-73
2023/01/02 01:35:38;;;;;;;;;;;;;;;11.82;100.00;100854.97;5068830;28;19920;-70
2023/01/02 01:38:04;;;;;;;;;;;;;;;11.81;100.00;100854.13;5076318;28;20359;-73
2023/01/02 01:40:35;;;;;;;;;;;;;;;11.85;100.00;100855.31;5067237;28;19916;-69
2023/01/02 01:43:00;;;;;;;;;;;;;;;11.88;100.00;100854.84;5076089;28;20348;-73
2023/01/02 01:45:25;;;;;;;;;;;;;;;11.89;100.00;100855.69;5088276;28;19916;-67
2023/01/02 01:47:53;;;;;;;;;;;;;;;11.93;100.00;100862.41;5086327;28;19920;-72
2023/01/02 01:50:21;;;;;;;;;;;;;;;11.97;100.00;100855.34;5088105;28;19927;-72
2023/01/02 01:52:49;;;;;;;;;;;;;;;11.92;100.00;100856.06;5067754;28;20287;-72
2023/01/02 01:55:17;;;;;;;;;;;;;;;12.02;100.00;100860.13;5068011;28;19935;-71
2023/01/02 01:57:45;;;;;;;;;;;;;;;11.92;100.00;100867.06;5067701;28;20346;-72
2023/01/02 02:00:10;;;;;;;;;;;;;;;12.01;100.00;100872.19;5050173;28;19924;-73
2023/01/02 02:02:38;;;;;;;;;;;;;;;11.97;100.00;100873.78;5070290;28;19928;-73
2023/01/02 02:05:04;;;;;;;;;;;;;;;11.88;100.00;100870.53;5080805;28;19924;-68
2023/01/02 02:07:30;;;;;;;;;;;;;;;11.89;100.00;100867.53;5088184;28;19926;-73
2023/01/02 02:10:00;;;;;;;;;;;;;;;11.91;100.00;100868.16;5075779;28;19924;-66
2023/01/02 02:12:26;;;;;;;;;;;;;;;11.84;100.00;100872.06;5074635;28;19925;-71
2023/01/02 02:14:51;;;;;;;;;;;;;;;11.86;100.00;100873.53;5076953;28;19920;-66
2023/01/02 02:17:35;;;;;;;;;;;;;;;11.87;100.00;100877.13;5078594;28;19920;-72
2023/01/02 02:20:13;;;;;;;;;;;;;;;11.90;100.00;100869.19;5073626;28;20309;-70
2023/01/02 02:22:57;;;;;;;;;;;;;;;11.87;100.00;100874.38;5067004;28;20348;-67
2023/01/02 02:25:48;;;;;;;;;;;;;;;11.84;100.00;100874.84;5068005;28;20491;-72
2023/01/02 02:28:32;;;;;;;;;;;;;;;11.85;100.00;100873.75;5051144;28;19974;-73
2023/01/02 02:31:04;;;;;;;;;;;;;;;11.93;100.00;100870.66;5086702;28;19931;-73
2023/01/02 02:33:46;;;;;;;;;;;;;;;11.89;100.00;100869.44;5076670;28;19920;-69
2023/01/02 02:36:25;;;;;;;;;;;;;;;11.92;100.00;100867.06;5071516;28;20068;-73
2023/01/02 02:39:00;;;;;;;;;;;;;;;12.05;100.00;100867.88;5084453;28;19926;-72
2023/01/02 02:41:40;;;;;;;;;;;;;;;11.93;100.00;100868.72;5067665;28;19931;-73
2023/01/02 02:44:19;;;;;;;;;;;;;;;11.92;100.00;100872.56;5067358;28;19921;-73
2023/01/02 02:47:03;;;;;;;;;;;;;;;11.84;100.00;100872.06;5075614;28;19931;-71
2023/01/02 02:49:46;;;;;;;;;;;;;;;11.84;100.00;100870.16;5075482;28;19985;-73
2023/01/02 02:52:25;;;;;;;;;;;;;;;11.90;100.00;100871.13;5080122;28;19928;-71
2023/01/02 02:54:56;;;;;;;;;;;;;;;11.90;100.00;100868.38;5085934;28;19920;-72
2023/01/02 02:57:22;;;;;;;;;;;;;;;11.90;100.00;100869.19;5086424;28;19930;-71
2023/01/02 02:59:47;;;;;;;;;;;;;;;11.92;100.00;100871.72;5084187;28;19916;-71
2023/01/02 03:02:14;;;;;;;;;;;;;;;11.95;100.00;100862.97;5077572;28;19983;-66
2023/01/02 03:04:41;;;;;;;;;;;;;;;11.92;100.00;100857.97;5067778;28;19921;-71
2023/01/02 03:07:20;;;;;;;;;;;;;;;12.01;100.00;100858.44;5067447;28;19978;-73
2023/01/02 03:09:58;;;;;;;;;;;;;;;11.96;100.00;100853.63;5081275;28;20077;-70
2023/01/02 03:12:29;;;;;;;;;;;;;;;11.99;100.00;100855.94;5077041;28;19920;-71
2023/01/02 03:15:06;;;;;;;;;;;;;;;11.95;100.00;100858.31;5067834;28;20283;-73
2023/01/02 03:17:37;;;;;;;;;;;;;;;11.90;100.00;100857.34;5067273;28;19939;-72
2023/01/02 03:20:11;;;;;;;;;;;;;;;11.92;100.00;100858.81;5076090;28;19920;-72
2023/01/02 03:22:39;;;;;;;;;;;;;;;11.90;100.00;100851.84;5084239;28;19923;-71
2023/01/02 03:25:05;;;;;;;;;;;;;;;11.96;100.00;100861.91;5067839;28;20007;-72
2023/01/02 03:27:32;;;;;;;;;;;;;;;11.94;100.00;100862.16;5066590;28;20016;-71
2023/01/02 03:30:03;;;;;;;;;;;;;;;11.97;100.00;100860.00;5066976;28;19927;-70
2023/01/02 03:32:34;;;;;;;;;;;;;;;12.05;100.00;100859.63;5067302;28;20377;-71
2023/01/02 03:35:02;;;;;;;;;;;;;;;11.92;100.00;100856.06;5083995;28;19916;-70
2023/01/02 03:37:29;;;;;;;;;;;;;;;11.99;100.00;100857.84;5081963;28;20431;-72
2023/01/02 03:39:56;;;;;;;;;;;;;;;12.13;100.00;100862.03;5073086;28;20013;-71
2023/01/02 03:42:26;;;;;;;;;;;;;;;12.03;100.00;100859.88;5071865;28;19916;-69
2023/01/02 03:45:06;;;;;;;;;;;;;;;12.16;100.00;100862.38;5067151;28;19920;-71
2023/01/02 03:47:36;;;;;;;;;;;;;;;12.03;100.00;100873.63;5067302;28;20015;-68
2023/01/02 03:50:05;;;;;;;;;;;;;;;12.09;100.00;100871.84;5078119;28;20378;-71
2023/01/02 03:52:31;;;;;;;;;;;;;;;12.06;100.00;100878.66;5081922;28;19921;-69
2023/01/02 03:54:58;;;;;;;;;;;;;;;12.11;100.00;100877.94;5066346;28;19928;-71
2023/01/02 03:57:41;;;;;;;;;;;;;;;12.07;100.00;100877.59;5066443;28;19920;-71
2023/01/02 04:00:09;;;;;;;;;;;;;;;12.15;100.00;100887.41;5079122;28;19927;-72
2023/01/02 04:02:54;;;;;;;;;;;;;;;12.09;100.00;100888.34;5084157;28;19920;-71
2023/01/02 04:05:24;;;;;;;;;;;;;;;12.18;100.00;100884.16;5086403;28;19973;-71
2023/01/02 04:08:04;;;;;;;;;;;;;;;12.09;100.00;100880.94;5088952;28;19912;-70
2023/01/02 04:10:30;;;;;;;;;;;;;;;12.10;100.00;100890.88;5088881;28;19920;-71
2023/01/02 04:12:59;;;;;;;;;;;;;;;12.13;100.00;100884.06;5090066;28;19965;-68
2023/01/02 04:15:26;;;;;;;;;;;;;;;12.06;100.00;100883.31;5080080;28;19920;-72
2023/01/02 04:17:56;;;;;;;;;;;;;;;11.94;100.00;100897.09;5069937;28;19959;-68
2023/01/02 04:20:37;;;;;;;;;;;;;;;11.90;100.00;100877.47;5083578;28;19920;-69
2023/01/02 04:23:08;;;;;;;;;;;;;;;11.88;100.00;100882.38;5087485;28;19997;-72
2023/01/02 04:25:51;;;;;;;;;;;;;;;11.91;100.00;100886.53;5085182;28;20038;-67
2023/01/02 04:28:22;;;;;;;;;;;;;;;11.88;100.00;100898.88;5087630;28;20666;-70
2023/01/02 04:30:51;;;;;;;;;;;;;;;11.89;100.00;100897.81;5078518;28;19920;-65
2023/01/02 04:33:17;;;;;;;;;;;;;;;11.87;100.00;100901.88;5085661;28;19920;-71
2023/01/02 04:35:42;;;;;;;;;;;;;;;11.98;100.00;100905.72;5089457;28;19929;-71
2023/01/02 04:38:09;;;;;;;;;;;;;;;11.85;100.00;100910.34;5069720;28;19917;-69
2023/01/02 04:40:37;;;;;;;;;;;;;;;11.85;100.00;100904.84;5084668;28;19977;-69
2023/01/02 04:43:07;;;;;;;;;;;;;;;11.86;100.00;100913.94;5074727;28;20312;-71
2023/01/02 04:45:32;;;;;;;;;;;;;;;11.82;100.00;100919.09;5070188;28;19921;-69
2023/01/02 04:47:58;;;;;;;;;;;;;;;11.80;100.00;100912.94;5070010;28;19986;-70
2023/01/02 04:50:23;;;;;;;;;;;;;;;11.82;100.00;100916.34;5082844;28;19963;-70
2023/01/02 04:52:48;;;;;;;;;;;;;;;11.87;100.00;100910.97;5088303;28;20598;-71
2023/01/02 04:55:13;;;;;;;;;;;;;;;11.76;100.00;100910.91;5090058;28;19928;-71
2023/01/02 04:57:38;;;;;;;;;;;;;;;11.79;100.00;100916.78;5088180;28;20349;-71
2023/01/02 05:00:04;;;;;;;;;;;;;;;11.77;100.00;100913.44;5087597;28;20046;-69
2023/01/02 05:02:33;;;;;;;;;;;;;;;11.85;100.00;100915.88;5075919;28;19921;-69
2023/01/02 05:04:58;;;;;;;;;;;;;;;11.86;100.00;100923.06;5069310;28;19931;-71
2023/01/02 05:07:23;;;;;;;;;;;;;;;11.81;100.00;100928.41;5051007;28;19917;-66
2023/01/02 05:09:49;;;;;;;;;;;;;;;11.85;100.00;100929.63;5086407;28;19927;-69
2023/01/02 05:12:14;;;;;;;;;;;;;;;11.92;100.00;100935.03;5088705;28;19916;-70
2023/01/02 05:14:39;;;;;;;;;;;;;;;11.92;100.00;100933.13;5077331;28;20042;-69
2023/01/02 05:17:04;;;;;;;;;;;;;;;11.90;100.00;100929.75;5071750;28;19928;-71
2023/01/02 05:19:29;;;;;;;;;;;;;;;11.88;100.00;100939.34;5075598;28;19966;-71
2023/01/02 05:24:38;;;;;;;;;;;;;;;11.99;100.00;100935.75;5069134;28;20337;-68
2023/01/02 05:27:04;;;;;;;;;;;;;;;11.92;100.00;100943.28;5068423;28;19928;-70
2023/01/02 05:29:29;;;;;;;;;;;;;;;11.89;100.00;100938.25;5075212;28;19951;-71
2023/01/02 05:31:54;;;;;;;;;;;;;;;11.93;100.00;100943.03;5087034;28;19975;-70
2023/01/02 05:34:19;;;;;;;;;;;;;;;11.94;100.00;100939.22;5069462;28;19917;-70
2023/01/02 05:36:44;;;;;;;;;;;;;;;11.94;100.00;100941.13;5068375;28;19916;-70
2023/01/02 05:39:13;;;;;;;;;;;;;;;11.99;100.00;100951.44;5083086;28;19920;-70
2023/01/02 05:41:39;;;;;;;;;;;;;;;12.00;100.00;100955.84;5086646;28;19927;-70
2023/01/02 05:44:07;;;;;;;;;;;;;;;11.96;100.00;100955.47;5088763;28;19920;-70
2023/01/02 05:46:33;;;;;;;;;;;;;;;11.98;100.00;100966.28;5085465;28;19927;-68
2023/01/02 05:48:58;;;;;;;;;;;;;;;12.03;100.00;100972.75;5088611;28;19912;-66
2023/01/02 05:51:23;;;;;;;;;;;;;;;12.04;100.00;100973.56;5068018;28;19963;-71
2023/01/02 05:53:49;;;;;;;;;;;;;;;12.14;100.00;100976.59;5066408;28;19917;-71
2023/01/02 05:56:16;;;;;;;;;;;;;;;12.28;100.00;100969.78;5066215;28;19927;-67
2023/01/02 05:58:42;;;;;;;;;;;;;;;12.01;100.00;100974.03;5065124;28;20362;-66
2023/01/02 06:01:08;;;;;;;;;;;;;;;12.04;100.00;100974.41;5082034;28;19933;-67
2023/01/02 06:03:34;;;;;;;;;;;;;;;12.04;100.00;100979.09;5077381;28;19935;-71
2023/01/02 06:06:03;;;;;;;;;;;;;;;12.03;100.00;100986.50;5079031;28;20216;-71
2023/01/02 06:08:28;;;;;;;;;;;;;;;11.90;100.00;100984.78;5051143;28;19975;-69
2023/01/02 06:10:53;;;;;;;;;;;;;;;11.95;100.00;100987.69;5078588;28;20378;-68
2023/01/02 06:13:19;;;;;;;;;;;;;;;11.97;100.00;100992.13;5086012;28;20359;-70
2023/01/02 06:15:44;;;;;;;;;;;;;;;11.92;100.00;100988.16;5085849;28;19924;-72
2023/01/02 06:18:09;;;;;;;;;;;;;;;11.90;100.00;100992.22;5085427;28;20318;-72
2023/01/02 06:20:34;;;;;;;;;;;;;;;11.96;100.00;100994.00;5078774;28;19963;-67
2023/01/02 06:22:59;;;;;;;;;;;;;;;11.81;100.00;101010.97;5078098;28;19965;-73
2023/01/02 06:25:24;;;;;;;;;;;;;;;11.92;100.00;101021.19;5065991;28;19927;-72
2023/01/02 06:27:50;;;;;;;;;;;;;;;11.79;100.00;101029.59;5071921;28;19927;-71
2023/01/02 06:30:15;;;;;;;;;;;;;;;11.61;100.00;101065.44;5083913;28;19924;-73
2023/01/02 06:32:40;;;;;;;;;;;;;;;11.50;100.00;101083.53;5071719;28;20439;-67
2023/01/02 06:35:05;;;;;;;;;;;;;;;11.28;100.00;101085.94;5075360;28;20212;-73
2023/01/02 06:37:30;;;;;;;;;;;;;;;11.00;100.00;101093.84;5071626;28;20396;-67
2023/01/02 06:39:56;;;;;;;;;;;;;;;10.86;100.00;101095.91;5086042;28;20008;-72
2023/01/02 06:42:21;;;;;;;;;;;;;;;10.73;100.00;101109.78;5080982;28;20011;-71
2023/01/02 06:44:46;;;;;;;;;;;;;;;10.67;100.00;101100.53;5072491;28;19920;-71
2023/01/02 06:47:11;;;;;;;;;;;;;;;10.55;100.00;101118.81;5069886;28;20359;-72
2023/01/02 06:49:36;;;;;;;;;;;;;;;10.49;100.00;101120.56;5070100;28;20278;-73
2023/01/02 06:52:01;;;;;;;;;;;;;;;10.36;100.00;101116.00;5071313;28;19920;-71
2023/01/02 06:54:27;;;;;;;;;;;;;;;10.32;100.00;101133.97;5077097;28;20478;-72
2023/01/02 06:56:52;;;;;;;;;;;;;;;10.18;100.00;101146.06;5084694;28;19924;-73
2023/01/02 06:59:17;;;;;;;;;;;;;;;10.12;100.00;101146.94;5081625;28;19974;-70
2023/01/02 07:01:42;;;;;;;;;;;;;;;10.09;100.00;101153.75;5069818;28;20019;-69
2023/01/02 07:04:13;;;;;;;;;;;;;;;9.97;100.00;101154.63;5077483;28;19925;-70
2023/01/02 07:06:38;;;;;;;;;;;;;;;9.97;100.00;101160.97;5072465;28;20003;-72
2023/01/02 07:09:03;;;;;;;;;;;;;;;9.83;100.00;101173.94;5066131;28;19943;-69
2023/01/02 07:11:29;;;;;;;;;;;;;;;9.87;100.00;101183.38;5065400;28;19923;-69
2023/01/02 07:13:54;;;;;;;;;;;;;;;9.75;100.00;101184.28;5068798;28;20357;-73
2023/01/02 07:16:20;;;;;;;;;;;;;;;9.69;100.00;101191.50;5070107;28;19942;-67
2023/01/02 07:18:46;;;;;;;;;;;;;;;9.68;100.00;101192.56;5064566;28;19927;-72
2023/01/02 07:21:11;;;;;;;;;;;;;;;9.79;100.00;101202.84;5065454;28;19983;-73
2023/01/02 07:23:37;;;;;;;;;;;;;;;9.73;100.00;101209.22;5082933;28;20351;-71
2023/01/02 07:26:03;;;;;;;;;;;;;;;9.62;100.00;101212.59;5073735;28;19967;-70
2023/01/02 07:28:29;;;;;;;;;;;;;;;9.73;100.00;101219.31;5064853;28;19962;-68
2023/01/02 07:30:58;;;;;;;;;;;;;;;9.69;100.00;101231.78;5073833;28;19920;-72
2023/01/02 07:33:23;;;;;;;;;;;;;;;9.59;100.00;101245.94;5065303;28;19943;-71
2023/01/02 07:35:48;;;;;;;;;;;;;;;9.57;100.00;101246.13;5080337;28;20363;-71
2023/01/02 07:38:13;;;;;;;;;;;;;;;9.53;100.00;101263.22;5086161;28;19916;-72
2023/01/02 07:40:39;;;;;;;;;;;;;;;9.61;100.00;101249.31;5089641;28;19916;-73
2023/01/02 07:43:04;;;;;;;;;;;;;;;9.59;100.00;101257.75;5077486;28;20348;-73
2023/01/02 07:45:30;;;;;;;;;;;;;;;9.56;100.00;101268.31;5088784;28;19920;-70
2023/01/02 07:47:56;;;;;;;;;;;;;;;9.51;100.00;101266.19;5089309;28;20436;-71
2023/01/02 07:50:22;;;;;;;;;;;;;;;9.50;100.00;101280.97;5089686;28;19916;-70
2023/01/02 07:52:47;;;;;;;;;;;;;;;9.53;100.00;101283.31;5088798;28;19923;-73
2023/01/02 07:55:12;;;;;;;;;;;;;;;9.56;100.00;101295.72;5085234;28;20401;-73
2023/01/02 07:57:37;;;;;;;;;;;;;;;9.48;100.00;101304.16;5068031;28;19922;-68
2023/01/02 08:00:03;;;;;;;;;;;;;;;9.58;100.00;101310.09;5079594;28;19924;-74
2023/01/02 08:02:29;;;;;;;;;;;;;;;9.51;100.00;101312.81;5089015;28;19917;-72
2023/01/02 08:04:54;;;;;;;;;;;;;;;9.48;100.00;101315.13;5087900;28;19965;-71
2023/01/02 08:07:21;;;;;;;;;;;;;;;9.68;100.00;101326.06;5087161;28;20014;-71
2023/01/02 08:09:47;;;;;;;;;;;;;;;9.51;100.00;101331.16;5069422;28;20315;-71
2023/01/02 08:12:12;;;;;;;;;;;;;;;9.50;100.00;101337.72;5067206;28;19962;-69
2023/01/02 08:14:37;;;;;;;;;;;;;;;9.49;100.00;101336.03;5068166;28;19977;-67
2023/01/02 08:17:02;;;;;;;;;;;;;;;9.58;100.00;101353.97;5068820;28;19916;-69
2023/01/02 08:19:27;;;;;;;;;;;;;;;9.46;100.00;101358.38;5080415;28;19930;-71
2023/01/02 08:21:53;;;;;;;;;;;;;;;9.41;100.00;101372.72;5070076;28;19928;-71
2023/01/02 08:24:18;;;;;;;;;;;;;;;9.42;100.00;101373.56;5068370;28;19912;-72
2023/01/02 08:26:43;;;;;;;;;;;;;;;9.42;100.00;101373.56;5065582;28;19943;-68
2023/01/02 08:29:08;;;;;;;;;;;;;;;9.44;100.00;101377.78;5076192;28;19920;-67
2023/01/02 08:31:34;;;;;;;;;;;;;;;9.40;100.00;101375.69;5071418;28;19923;-72
2023/01/02 08:33:59;;;;;;;;;;;;;;;9.33;100.00;101384.75;5082650;28;19959;-71
2023/01/02 08:36:24;;;;;;;;;;;;;;;9.39;100.00;101390.44;5076706;28;19996;-68
2023/01/02 08:38:49;;;;;;;;;;;;;;;9.28;100.00;101392.75;5067555;28;19959;-72
2023/01/02 08:41:28;;;;;;;;;;;;;;;9.41;100.00;101393.81;5072327;28;19924;-72
2023/01/02 08:43:53;;;;;;;;;;;;;;;9.26;100.00;101394.84;5085368;28;20212;-70
2023/01/02 08:46:18;;;;;;;;;;;;;;;9.52;100.00;101399.50;5088451;28;19938;-72
2023/01/02 08:48:43;;;;;;;;;;;;;;;9.29;100.00;101399.06;5083140;28;19924;-68
2023/01/02 08:51:08;;;;;;;;;;;;;;;9.25;100.00;101408.75;5082931;28;19931;-69
2023/01/02 08:53:34;;;;;;;;;;;;;;;9.21;100.00;101413.81;5075866;28;20003;-70
2023/01/02 08:56:17;;;;;;;;;;;;;;;9.24;100.00;101423.53;5073737;28;20355;-69
2023/01/02 08:58:42;;;;;;;;;;;;;;;9.27;100.00;101431.31;5077178;28;19927;-71
2023/01/02 09:01:07;;;;;;;;;;;;;;;9.19;100.00;101437.84;5073673;28;19920;-66
2023/01/02 09:03:32;;;;;;;;;;;;;;;9.19;100.00;101426.03;5067540;28;20432;-71
2023/01/02 09:05:57;;;;;;;;;;;;;;;9.23;100.00;101433.66;5067836;28;19928;-70
2023/01/02 09:08:23;;;;;;;;;;;;;;;9.19;100.00;101435.09;5068978;28;20333;-70
2023/01/02 09:10:48;;;;;;;;;;;;;;;9.21;100.00;101435.72;5075809;28;20116;-73
2023/01/02 09:13:13;;;;;;;;;;;;;;;9.20;100.00;101439.53;5070649;28;19928;-72
2023/01/02 09:15:42;;;;;;;;;;;;;;;9.24;100.00;101456.41;5073918;28;20054;-72
2023/01/02 09:18:08;;;;;;;;;;;;;;;9.29;100.00;101453.91;5073053;28;19921;-71
2023/01/02 09:20:33;;;;;;;;;;;;;;;9.27;100.00;101465.03;5068044;28;19925;-72
2023/01/02 09:22:58;;;;;;;;;;;;;;;9.29;100.00;101470.34;5081353;28;19923;-73
2023/01/02 09:25:23;;;;;;;;;;;;;;;9.31;100.00;101473.69;5074639;28;19920;-68
2023/01/02 09:27:48;;;;;;;;;;;;;;;9.26;100.00;101488.03;5083370;28;19920;-67
2023/01/02 09:30:13;;;;;;;;;;;;;;;9.27;100.00;101499.84;5077777;28;20289;-71
2023/01/02 09:32:39;;;;;;;;;;;;;;;9.21;100.00;101496.03;5072495;28;19920;-69
2023/01/02 09:35:04;;;;;;;;;;;;;;;9.24;100.00;101501.09;5069396;28;19927;-72
2023/01/02 09:37:29;;;;;;;;;;;;;;;9.22;100.00;101497.72;5066186;28;19920;-73
2023/01/02 09:39:55;;;;;;;;;;;;;;;9.29;100.00;101504.06;5068646;28;19939;-66
2023/01/02 09:42:20;;;;;;;;;;;;;;;9.23;100.00;101515.03;5081135;28;19967;-72
2023/01/02 09:44:49;;;;;;;;;;;;;;;9.20;100.00;101515.44;5083881;28;19920;-72
2023/01/02 09:47:22;;;;;;;;;;;;;;;9.27;100.00;101519.88;5066805;28;19932;-72
2023/01/02 09:49:48;;;;;;;;;;;;;;;9.27;100.00;101519.03;5077456;28;20348;-72
2023/01/02 09:52:18;;;;;;;;;;;;;;;9.33;100.00;101519.06;5086094;28;19927;-73
2023/01/02 09:54:44;;;;;;;;;;;;;;;9.45;100.00;101524.78;5071434;28;19933;-73
2023/01/02 09:57:18;;;;;;;;;;;;;;;9.42;100.00;101532.56;5077101;28;20306;-71
2023/01/02 09:59:55;;;;;;;;;;;;;;;9.45;100.00;101519.31;5088654;28;19943;-70
2023/01/02 10:02:31;;;;;;;;;;;;;;;9.58;100.00;101518.50;5085149;28;19973;-72
2023/01/02 10:04:56;;;;;;;;;;;;;;;9.39;100.00;101524.78;5074644;28;19927;-73
2023/01/02 10:07:29;;;;;;;;;;;;;;;9.38;100.00;101532.16;5067348;28;20367;-71
2023/01/02 10:10:12;;;;;;;;;;;;;;;9.32;100.00;101536.53;5068153;28;20397;-73
2023/01/02 10:12:49;;;;;;;;;;;;;;;9.36;100.00;101535.09;5068277;28;19970;-69
2023/01/02 10:15:18;;;;;;;;;;;;;;;9.33;100.00;101538.25;5066161;28;19970;-70
2023/01/02 10:17:49;;;;;;;;;;;;;;;9.30;100.00;101544.13;5066205;28;19924;-73
2023/01/02 10:20:20;;;;;;;;;;;;;;;9.40;100.00;101542.91;5088599;28;19924;-73
2023/01/02 10:22:48;;;;;;;;;;;;;;;9.42;100.00;101549.84;5070246;28;19928;-69
2023/01/02 10:25:21;;;;;;;;;;;;;;;9.51;100.00;101540.41;5071960;28;19924;-68
2023/01/02 10:28:09;;;;;;;;;;;;;;;9.54;100.00;101540.00;5072979;28;19977;-74
2023/01/02 10:30:41;;;;;;;;;;;;;;;9.58;100.00;101541.28;5056348;28;20421;-73
2023/01/02 10:33:15;;;;;;;;;;;;;;;9.63;100.00;101540.66;5098493;28;20313;-73
2023/01/02 10:35:42;;;;;;;;;;;;;;;9.72;100.00;101546.78;5088382;28;19927;-70
2023/01/02 10:38:14;;;;;;;;;;;;;;;9.73;100.00;101543.84;5081585;28;19920;-68
2023/01/02 10:40:42;;;;;;;;;;;;;;;9.80;100.00;101555.66;5067182;28;19925;-73
2023/01/02 10:43:09;;;;;;;;;;;;;;;9.60;100.00;101565.75;5052607;28;19921;-67
2023/01/02 10:45:34;;;;;;;;;;;;;;;9.54;100.00;101569.31;5070817;28;19920;-71
2023/01/02 10:47:59;;;;;;;;;;;;;;;9.80;100.00;101568.53;5075458;28;19942;-73
2023/01/02 10:50:27;;;;;;;;;;;;;;;9.63;100.00;101559.88;5077841;28;19955;-73
2023/01/02 10:53:03;;;;;;;;;;;;;;;9.55;100.00;101558.13;5070806;28;19920;-67
2023/01/02 10:55:30;;;;;;;;;;;;;;;9.53;100.00;101568.47;5073103;28;19982;-72
2023/01/02 10:58:00;;;;;;;;;;;;;;;9.56;100.00;101568.06;5072355;28;19943;-73
2023/01/02 11:00:27;;;;;;;;;;;;;;;9.55;100.00;101562.78;5067496;28;19923;-69
2023/01/02 11:02:53;;;;;;;;;;;;;;;9.56;100.00;101564.47;5070681;28;20410;-71
2023/01/02 11:05:20;;;;;;;;;;;;;;;9.57;100.00;101568.91;5066625;28;19962;-71
2023/01/02 11:07:46;;;;;;;;;;;;;;;9.62;100.00;101574.59;5073318;28;19920;-72
2023/01/02 11:10:41;;;;;;;;;;;;;;;9.71;100.00;101578.00;5075810;28;19962;-74
2023/01/02 11:13:09;;;;;;;;;;;;;;;9.79;100.00;101577.84;5066476;28;20371;-69
2023/01/02 11:15:43;;;;;;;;;;;;;;;9.84;100.00;101594.50;5075503;28;19974;-65
2023/01/02 11:18:10;;;;;;;;;;;;;;;9.86;100.00;101593.25;5078493;28;19920;-73
2023/01/02 11:20:36;;;;;;;;;;;;;;;9.99;100.00;101586.94;5076279;28;20362;-70
2023/01/02 11:23:02;;;;;;;;;;;;;;;10.03;100.00;101587.34;5089193;28;19966;-73
2023/01/02 11:25:31;;;;;;;;;;;;;;;9.98;100.00;101590.72;5083563;28;19924;-73
2023/01/02 11:27:59;;;;;;;;;;;;;;;10.17;100.00;101588.22;5071688;28;19921;-69
2023/01/02 11:30:35;;;;;;;;;;;;;;;9.99;100.00;101592.44;5087815;28;20346;-69
2023/01/02 11:33:05;;;;;;;;;;;;;;;9.91;100.00;101591.78;5068611;28;19927;-73
2023/01/02 11:35:35;;;;;;;;;;;;;;;9.85;100.00;101604.44;5070861;28;20636;-72
2023/01/02 11:38:00;;;;;;;;;;;;;;;10.04;100.00;101605.53;5080918;28;19916;-71
2023/01/02 11:40:27;;;;;;;;;;;;;;;9.88;100.00;101607.63;5084985;28;20293;-69
2023/01/02 11:45:38;;;;;;;;;;;;;;;9.82;100.00;101608.41;5089014;28;19935;-70
2023/01/02 11:48:05;;;;;;;;;;;;;;;9.83;100.00;101606.50;5077846;28;19925;-63
2023/01/02 11:50:33;;;;;;;;;;;;;;;9.89;100.00;101602.97;5075353;28;20437;-67
2023/01/02 11:53:03;;;;;;;;;;;;;;;9.90;100.00;101599.16;5073911;28;19936;-65
2023/01/02 11:55:36;;;;;;;;;;;;;;;9.89;100.00;101597.47;5089169;28;19967;-71
2023/01/02 11:58:10;;;;;;;;;;;;;;;9.90;100.00;101601.06;5089491;28;20034;-70
2023/01/02 12:00:38;;;;;;;;;;;;;;;9.93;100.00;101611.59;5089907;28;19917;-66
2023/01/02 12:03:13;;;;;;;;;;;;;;;9.87;100.00;101616.03;5073024;28;19920;-66
2023/01/02 12:05:48;;;;;;;;;;;;;;;9.85;100.00;101619.00;5067597;28;19920;-69
2023/01/02 12:08:25;;;;;;;;;;;;;;;9.81;100.00;101628.69;5067919;28;20302;-69
2023/01/02 12:11:01;;;;;;;;;;;;;;;9.80;100.00;101624.25;5067806;28;20337;-74
2023/01/02 12:13:45;;;;;;;;;;;;;;;9.80;100.00;101620.66;5087876;28;20278;-72
2023/01/02 12:16:33;;;;;;;;;;;;;;;9.83;100.00;101629.34;5083730;28;19966;-67
2023/01/02 12:19:01;;;;;;;;;;;;;;;10.00;100.00;101627.06;5070451;28;19956;-74
2023/01/02 12:21:42;;;;;;;;;;;;;;;9.92;100.00;101623.66;5070891;28;19966;-64
2023/01/02 12:24:26;;;;;;;;;;;;;;;9.85;100.00;101629.13;5082947;28;19924;-73
2023/01/02 12:27:02;;;;;;;;;;;;;;;9.85;100.00;101624.47;5073239;28;19928;-74
2023/01/02 12:29:37;;;;;;;;;;;;;;;9.78;100.00;101629.13;5069754;28;19927;-74
2023/01/02 12:32:25;;;;;;;;;;;;;;;9.83;100.00;101628.47;5070249;28;19917;-73
2023/01/02 12:35:12;;;;;;;;;;;;;;;9.96;100.00;101619.44;5040683;28;19917;-74
2023/01/02 12:37:46;;;;;;;;;;;;;;;9.79;100.00;101624.47;5080466;28;19923;-64
2023/01/02 12:40:11;;;;;;;;;;;;;;;9.83;100.00;101623.84;5089453;28;20351;-74
2023/01/02 12:42:43;;;;;;;;;;;;;;;9.80;100.00;101629.75;5083054;28;20011;-74